createdAt,value
2023-02-23T00:02:05.831Z,104.43
2023-02-23T00:04:33.725Z,91.83
2023-02-23T00:07:01.414Z,98.53
2023-02-23T00:09:35.376Z,96.23
2023-02-23T00:12:08.488Z,104.40
2023-02-23T00:14:37.819Z,101.90
2023-02-23T00:17:05.981Z,98.57
2023-02-23T00:19:34.064Z,97.53
2023-02-23T00:22:02.064Z,101.10
2023-02-23T00:24:30.342Z,99.80
2023-02-23T00:26:58.162Z,101.53
2023-02-23T00:29:26.095Z,102.00
2023-02-23T00:31:53.607Z,96.70
2023-02-23T00:34:22.335Z,93.97
2023-02-23T00:36:55.375Z,100.90
2023-02-23T00:39:25.290Z,103.17
2023-02-23T00:41:53.386Z,101.93
2023-02-23T00:44:21.923Z,100.83
2023-02-23T00:46:51.469Z,93.47
2023-02-23T00:49:19.902Z,99.40
2023-02-23T00:51:47.907Z,99.37
2023-02-23T00:54:15.313Z,86.37
2023-02-23T00:56:42.932Z,101.83
2023-02-23T00:59:11.015Z,97.23
2023-02-23T01:01:46.465Z,100.63
2023-02-23T01:04:23.433Z,87.23
2023-02-23T01:06:51.513Z,94.57
2023-02-23T01:09:28.263Z,96.40
2023-02-23T01:11:57.140Z,89.80
2023-02-23T01:14:24.526Z,92.33
2023-02-23T01:16:52.694Z,88.90
2023-02-23T01:19:20.164Z,86.87
2023-02-23T01:21:48.404Z,95.87
2023-02-23T01:24:16.021Z,88.57
2023-02-23T01:26:44.105Z,89.90
2023-02-23T01:29:13.655Z,87.80
2023-02-23T01:32:04.836Z,90.73
2023-02-23T01:34:36.764Z,86.20
2023-02-23T01:37:04.446Z,90.43
2023-02-23T01:39:32.928Z,84.53
2023-02-23T01:42:01.008Z,85.03
2023-02-23T01:44:31.315Z,87.43
2023-02-23T01:47:00.242Z,81.67
2023-02-23T01:49:28.319Z,81.17
2023-02-23T01:51:59.410Z,77.20
2023-02-23T01:54:31.533Z,80.27
2023-02-23T01:57:00.156Z,80.10
2023-02-23T01:59:52.432Z,80.93
2023-02-23T02:02:22.048Z,85.07
2023-02-23T02:04:52.454Z,77.77
2023-02-23T02:07:24.184Z,82.50
2023-02-23T02:10:12.337Z,80.00
2023-02-23T02:12:41.682Z,76.33
2023-02-23T02:15:17.756Z,78.10
2023-02-23T02:17:47.563Z,79.87
2023-02-23T02:20:33.361Z,84.53
2023-02-23T02:23:09.738Z,82.30
2023-02-23T02:25:56.482Z,83.60
2023-02-23T02:28:45.598Z,78.30
2023-02-23T02:31:31.662Z,83.90
2023-02-23T02:34:07.482Z,85.20
2023-02-23T02:36:56.586Z,89.50
2023-02-23T02:39:44.950Z,86.57
2023-02-23T02:42:29.930Z,85.47
2023-02-23T02:45:09.645Z,84.03
2023-02-23T02:47:42.470Z,82.63
2023-02-23T02:50:12.573Z,78.93
2023-02-23T02:52:42.121Z,82.30
2023-02-23T02:55:27.988Z,84.10
2023-02-23T02:57:58.398Z,81.93
2023-02-23T03:01:01.781Z,80.97
2023-02-23T03:04:01.097Z,78.57
2023-02-23T03:06:58.351Z,92.40
2023-02-23T03:10:01.139Z,92.72
2023-02-23T03:12:56.128Z,94.67
2023-02-23T03:16:00.516Z,94.47
2023-02-23T03:18:58.182Z,93.90
2023-02-23T03:24:40.561Z,95.23
2023-02-23T03:27:47.901Z,101.17
2023-02-23T03:30:57.227Z,101.27
2023-02-23T03:33:53.638Z,100.57
2023-02-23T03:36:45.318Z,97.60
2023-02-23T03:39:44.811Z,104.60
2023-02-23T03:42:33.692Z,98.23
2023-02-23T03:45:23.541Z,95.93
2023-02-23T03:48:10.521Z,103.83
2023-02-23T03:51:20.302Z,102.83
2023-02-23T03:54:09.811Z,106.80
2023-02-23T03:56:56.060Z,105.97
2023-02-23T03:59:44.213Z,99.67
2023-02-23T04:02:30.622Z,99.60
2023-02-23T04:05:16.897Z,95.10
2023-02-23T04:08:03.850Z,105.17
2023-02-23T04:10:49.798Z,105.57
2023-02-23T04:13:20.690Z,100.03
2023-02-23T04:15:55.606Z,105.07
2023-02-23T04:18:28.539Z,100.20
2023-02-23T04:20:57.835Z,97.97
2023-02-23T04:23:26.567Z,105.30
2023-02-23T04:25:56.198Z,103.87
2023-02-23T04:28:25.048Z,98.47
2023-02-23T04:30:53.080Z,98.53
2023-02-23T04:33:22.925Z,107.00
2023-02-23T04:35:50.585Z,104.23
2023-02-23T04:38:19.499Z,106.10
2023-02-23T04:40:47.908Z,103.63
2023-02-23T04:43:19.555Z,95.20
2023-02-23T04:45:47.729Z,97.53
2023-02-23T04:48:16.443Z,108.93
2023-02-23T04:50:45.781Z,103.80
2023-02-23T04:53:14.702Z,100.40
2023-02-23T04:55:43.600Z,100.70
2023-02-23T04:58:13.879Z,94.80
2023-02-23T05:00:43.066Z,92.03
2023-02-23T05:03:10.875Z,88.40
2023-02-23T05:05:39.653Z,100.63
2023-02-23T05:08:09.220Z,94.77
2023-02-23T05:10:40.073Z,95.23
2023-02-23T05:13:08.426Z,102.63
2023-02-23T05:15:37.461Z,99.00
2023-02-23T05:18:05.270Z,103.93
2023-02-23T05:20:33.485Z,102.50
2023-02-23T05:23:01.924Z,99.70
2023-02-23T05:25:30.240Z,95.53
2023-02-23T05:27:58.748Z,103.77
2023-02-23T05:30:27.111Z,96.93
2023-02-23T05:32:55.544Z,106.87
2023-02-23T05:35:23.407Z,100.07
2023-02-23T05:37:51.971Z,108.80
2023-02-23T05:40:21.222Z,100.93
2023-02-23T05:42:49.034Z,103.97
2023-02-23T05:45:18.228Z,105.67
2023-02-23T05:47:46.204Z,106.03
2023-02-23T05:50:14.570Z,105.43
2023-02-23T05:52:42.870Z,111.07
2023-02-23T05:55:11.823Z,100.93
2023-02-23T05:57:39.981Z,97.53
2023-02-23T06:00:11.317Z,98.70
2023-02-23T06:02:44.633Z,107.63
2023-02-23T06:05:12.058Z,104.00
2023-02-23T06:07:40.108Z,102.43
2023-02-23T06:10:10.179Z,101.47
2023-02-23T06:12:38.130Z,98.00
2023-02-23T06:15:08.451Z,102.03
2023-02-23T06:17:37.046Z,97.10
2023-02-23T06:20:09.133Z,93.87
2023-02-23T06:22:36.681Z,102.33
2023-02-23T06:25:05.073Z,111.27
2023-02-23T06:27:33.211Z,100.30
2023-02-23T06:30:01.221Z,100.20
2023-02-23T06:32:29.253Z,97.20
2023-02-23T06:34:56.949Z,108.80
2023-02-23T06:37:25.234Z,97.40
2023-02-23T06:39:53.217Z,99.20
2023-02-23T06:42:21.177Z,95.73
2023-02-23T06:44:49.164Z,97.70
2023-02-23T06:47:20.348Z,105.50
2023-02-23T06:49:48.363Z,102.60
2023-02-23T06:55:05.890Z,98.13
2023-02-23T06:57:33.905Z,105.87
2023-02-23T07:00:02.924Z,107.47
2023-02-23T07:02:30.568Z,102.10
2023-02-23T07:04:58.987Z,110.23
2023-02-23T07:07:27.137Z,106.27
2023-02-23T07:09:55.547Z,109.43
2023-02-23T07:12:24.198Z,108.87
2023-02-23T07:14:51.865Z,118.60
2023-02-23T07:17:20.202Z,107.37
2023-02-23T07:19:48.045Z,113.70
2023-02-23T07:22:16.883Z,103.97
2023-02-23T07:24:45.575Z,101.03
2023-02-23T07:27:13.590Z,110.43
2023-02-23T07:29:41.325Z,112.47
2023-02-23T07:32:09.969Z,113.10
2023-02-23T07:34:37.901Z,114.87
2023-02-23T07:37:06.010Z,120.97
2023-02-23T07:39:34.926Z,113.83
2023-02-23T07:42:03.253Z,109.90
2023-02-23T07:44:31.228Z,114.13
2023-02-23T07:47:02.043Z,106.53
2023-02-23T07:49:30.819Z,115.67
2023-02-23T07:51:58.402Z,112.30
2023-02-23T07:54:26.647Z,120.63
2023-02-23T07:56:54.601Z,120.13
2023-02-23T07:59:22.293Z,108.73
2023-02-23T08:01:50.189Z,110.73
2023-02-23T08:04:18.289Z,113.17
2023-02-23T08:06:45.866Z,111.47
2023-02-23T08:09:13.750Z,112.73
2023-02-23T08:11:41.959Z,107.77
2023-02-23T08:14:10.669Z,107.57
2023-02-23T08:16:38.863Z,106.83
2023-02-23T08:19:06.898Z,102.80
2023-02-23T08:21:35.136Z,111.80
2023-02-23T08:24:03.292Z,100.20
2023-02-23T08:26:31.364Z,116.10
2023-02-23T08:28:59.313Z,111.43
2023-02-23T08:31:27.646Z,108.33
2023-02-23T08:33:55.785Z,105.70
2023-02-23T08:36:23.849Z,114.73
2023-02-23T08:38:50.571Z,98.97
2023-02-23T08:41:18.000Z,111.50
2023-02-23T08:43:45.763Z,109.33
2023-02-23T08:46:13.435Z,115.90
2023-02-23T08:48:41.487Z,113.20
2023-02-23T08:51:09.168Z,128.53
2023-02-23T08:53:37.646Z,129.90
2023-02-23T08:56:07.221Z,125.57
2023-02-23T08:58:36.145Z,120.70
2023-02-23T09:01:03.890Z,122.87
2023-02-23T09:03:31.717Z,119.67
2023-02-23T09:05:59.427Z,121.93
2023-02-23T09:08:27.063Z,120.93
2023-02-23T09:10:54.968Z,114.33
2023-02-23T09:13:22.501Z,116.87
2023-02-23T09:15:50.045Z,122.47
2023-02-23T09:18:18.506Z,113.63
2023-02-23T09:20:46.380Z,128.37
2023-02-23T09:23:14.483Z,105.37
2023-02-23T09:25:45.510Z,103.87
2023-02-23T09:28:14.313Z,110.67
2023-02-23T09:30:42.526Z,101.07
2023-02-23T09:33:10.236Z,108.90
2023-02-23T09:35:37.878Z,97.83
2023-02-23T09:38:05.688Z,108.73
2023-02-23T09:40:47.194Z,112.37
2023-02-23T09:43:40.202Z,105.77
2023-02-23T09:46:13.453Z,100.67
2023-02-23T09:48:41.102Z,101.63
2023-02-23T09:51:08.809Z,102.67
2023-02-23T09:53:48.681Z,106.50
2023-02-23T09:56:28.982Z,94.93
2023-02-23T09:58:57.349Z,100.90
2023-02-23T10:01:49.038Z,96.60
2023-02-23T10:04:18.624Z,96.17
2023-02-23T10:06:47.844Z,100.70
2023-02-23T10:09:50.679Z,100.57
2023-02-23T10:13:00.876Z,100.93
2023-02-23T10:15:56.045Z,95.67
2023-02-23T10:18:46.970Z,93.57
2023-02-23T10:21:21.930Z,101.27
2023-02-23T10:24:01.130Z,91.67
2023-02-23T10:26:32.055Z,100.27
2023-02-23T10:28:58.995Z,94.63
2023-02-23T10:31:57.309Z,93.53
2023-02-23T10:34:24.380Z,98.10
2023-02-23T10:37:24.416Z,92.43
2023-02-23T10:39:51.871Z,86.27
2023-02-23T10:42:30.952Z,83.90
2023-02-23T10:44:58.512Z,94.17
2023-02-23T10:47:28.640Z,85.60
2023-02-23T10:49:56.970Z,89.73
2023-02-23T10:52:33.192Z,88.20
2023-02-23T10:55:00.687Z,90.28
2023-02-23T10:57:33.555Z,88.47
2023-02-23T11:00:27.664Z,90.50
2023-02-23T11:02:56.105Z,82.70
2023-02-23T11:05:56.683Z,86.23
2023-02-23T11:08:29.420Z,91.03
2023-02-23T11:11:01.385Z,88.97
2023-02-23T11:13:35.580Z,85.10
2023-02-23T11:16:12.385Z,85.67
2023-02-23T11:18:40.567Z,92.43
2023-02-23T11:21:12.952Z,90.83
2023-02-23T11:23:40.653Z,90.80
2023-02-23T11:26:37.277Z,87.27
2023-02-23T11:29:16.256Z,87.77
2023-02-23T11:31:47.848Z,87.77
2023-02-23T11:34:22.208Z,88.13
2023-02-23T11:36:59.645Z,91.63
2023-02-23T11:39:28.004Z,85.90
2023-02-23T11:42:34.294Z,86.47
2023-02-23T11:45:06.908Z,81.87
2023-02-23T11:47:35.299Z,85.73
2023-02-23T11:50:02.552Z,82.83
2023-02-23T11:52:29.667Z,90.57
2023-02-23T11:55:26.261Z,87.70
2023-02-23T11:57:56.886Z,84.37
2023-02-23T12:00:34.652Z,85.37
2023-02-23T12:03:01.525Z,87.13
2023-02-23T12:05:31.692Z,88.27
2023-02-23T12:08:05.928Z,87.90
2023-02-23T12:10:50.046Z,82.93
2023-02-23T12:13:28.892Z,87.87
2023-02-23T12:16:08.696Z,86.87
2023-02-23T12:18:53.153Z,85.70
2023-02-23T12:21:25.479Z,81.07
2023-02-23T12:23:58.898Z,81.93
2023-02-23T12:26:27.776Z,82.13
2023-02-23T12:28:58.850Z,84.17
2023-02-23T12:31:33.206Z,78.13
2023-02-23T12:34:05.240Z,73.60
2023-02-23T12:36:43.170Z,79.10
2023-02-23T12:39:22.207Z,77.70
2023-02-23T12:41:56.853Z,82.73
2023-02-23T12:44:42.720Z,76.90
2023-02-23T12:47:38.059Z,74.50
2023-02-23T12:50:13.371Z,80.13
2023-02-23T12:53:12.538Z,79.03
2023-02-23T12:56:33.415Z,79.17
2023-02-23T12:59:14.785Z,80.00
2023-02-23T13:02:01.153Z,73.67
2023-02-23T13:04:44.360Z,75.07
2023-02-23T13:07:36.954Z,73.67
2023-02-23T13:10:34.688Z,75.83
2023-02-23T13:13:13.720Z,74.65
2023-02-23T13:15:59.557Z,79.20
2023-02-23T13:18:32.458Z,69.03
2023-02-23T13:21:16.014Z,66.57
2023-02-23T13:24:11.288Z,73.00
2023-02-23T13:26:53.121Z,74.40
2023-02-23T13:29:26.080Z,73.20
2023-02-23T13:31:53.703Z,67.30
2023-02-23T13:34:40.066Z,71.80
2023-02-23T13:37:07.390Z,65.13
2023-02-23T13:39:53.637Z,68.37
2023-02-23T13:42:40.958Z,71.40
2023-02-23T13:47:58.814Z,64.68
2023-02-23T13:50:35.044Z,61.33
2023-02-23T13:53:04.836Z,61.05
2023-02-23T13:55:53.484Z,65.50
2023-02-23T13:58:28.008Z,60.63
2023-02-23T14:01:24.389Z,65.07
2023-02-23T14:03:57.456Z,66.07
2023-02-23T14:06:26.960Z,64.73
2023-02-23T14:09:00.965Z,58.47
2023-02-23T14:11:44.259Z,64.57
2023-02-23T14:14:34.933Z,59.47
2023-02-23T14:17:17.533Z,68.27
2023-02-23T14:19:56.628Z,66.00
2023-02-23T14:23:00.537Z,66.13
2023-02-23T14:25:45.097Z,67.73
2023-02-23T14:28:32.788Z,60.93
2023-02-23T14:31:12.157Z,63.97
2023-02-23T14:33:42.016Z,60.77
2023-02-23T14:36:24.928Z,65.43
2023-02-23T14:38:52.360Z,60.90
2023-02-23T14:41:29.454Z,66.53
2023-02-23T14:44:05.222Z,59.35
2023-02-23T14:46:33.083Z,65.37
2023-02-23T14:49:00.711Z,60.27
2023-02-23T14:51:34.617Z,60.10
2023-02-23T14:54:01.753Z,60.47
2023-02-23T14:56:42.344Z,58.50
2023-02-23T14:59:18.335Z,63.43
2023-02-23T15:01:46.506Z,59.07
2023-02-23T15:04:25.978Z,57.13
2023-02-23T15:06:57.743Z,61.23
2023-02-23T15:09:39.919Z,57.30
2023-02-23T15:12:35.661Z,60.10
2023-02-23T15:15:04.583Z,61.73
2023-02-23T15:17:32.988Z,62.63
2023-02-23T15:20:15.516Z,58.97
2023-02-23T15:22:48.035Z,63.13
2023-02-23T15:25:20.802Z,61.63
2023-02-23T15:27:48.141Z,59.60
2023-02-23T15:30:30.836Z,69.87
2023-02-23T15:33:13.230Z,63.00
2023-02-23T15:35:47.436Z,61.93
2023-02-23T15:41:16.397Z,67.83
2023-02-23T15:43:43.577Z,64.77
2023-02-23T15:46:13.899Z,62.43
2023-02-23T15:48:45.958Z,65.33
2023-02-23T15:51:32.876Z,62.27
2023-02-23T15:54:01.408Z,58.90
2023-02-23T15:56:29.837Z,59.30
2023-02-23T15:59:02.778Z,59.43
2023-02-23T16:01:31.966Z,64.20
2023-02-23T16:04:06.859Z,62.73
2023-02-23T16:06:51.142Z,68.50
2023-02-23T16:09:20.839Z,65.90
2023-02-23T16:11:55.235Z,66.80
2023-02-23T16:14:23.609Z,66.27
2023-02-23T16:17:08.452Z,66.17
2023-02-23T16:19:42.144Z,59.00
2023-02-23T16:22:16.490Z,70.37
2023-02-23T16:24:44.495Z,62.07
2023-02-23T16:27:12.608Z,72.40
2023-02-23T16:29:42.811Z,70.93
2023-02-23T16:32:26.837Z,72.83
2023-02-23T16:35:03.720Z,66.27
2023-02-23T16:40:01.476Z,63.70
2023-02-23T16:42:33.614Z,64.80
2023-02-23T16:45:01.183Z,73.13
2023-02-23T16:47:36.726Z,69.53
2023-02-23T16:50:21.147Z,79.53
2023-02-23T16:52:52.069Z,75.37
2023-02-23T16:55:27.056Z,70.83
2023-02-23T16:57:59.748Z,72.77
2023-02-23T17:00:32.849Z,71.10
2023-02-23T17:03:06.221Z,71.30
2023-02-23T17:05:33.920Z,66.50
2023-02-23T17:08:01.602Z,64.80
2023-02-23T17:10:32.826Z,79.20
2023-02-23T17:13:08.903Z,64.93
2023-02-23T17:15:40.237Z,63.58
2023-02-23T17:18:07.775Z,67.47
2023-02-23T17:20:35.737Z,71.37
2023-02-23T17:23:03.442Z,69.73
2023-02-23T17:25:31.228Z,65.93
2023-02-23T17:27:59.183Z,65.63
2023-02-23T17:30:27.568Z,65.67
2023-02-23T17:32:55.843Z,66.17
2023-02-23T17:35:23.375Z,69.27
2023-02-23T17:37:51.014Z,74.90
2023-02-23T17:40:29.130Z,82.90
2023-02-23T17:42:56.937Z,72.87
2023-02-23T17:45:24.196Z,71.07
2023-02-23T17:47:52.337Z,86.30
2023-02-23T17:50:20.566Z,85.87
2023-02-23T17:52:49.072Z,92.37
2023-02-23T17:55:18.130Z,92.90
2023-02-23T17:57:46.291Z,85.97
2023-02-23T18:00:16.898Z,86.83
2023-02-23T18:02:44.205Z,79.20
2023-02-23T18:05:13.670Z,81.70
2023-02-23T18:07:41.310Z,92.30
2023-02-23T18:10:11.222Z,90.60
2023-02-23T18:12:39.379Z,94.50
2023-02-23T18:15:09.469Z,81.83
2023-02-23T18:17:37.255Z,85.30
2023-02-23T18:20:07.510Z,85.93
2023-02-23T18:22:35.111Z,87.73
2023-02-23T18:25:02.272Z,85.30
2023-02-23T18:27:30.403Z,83.40
2023-02-23T18:29:58.397Z,78.97
2023-02-23T18:32:28.555Z,79.87
2023-02-23T18:34:57.075Z,81.03
2023-02-23T18:37:25.433Z,77.40
2023-02-23T18:39:54.256Z,74.10
2023-02-23T18:42:22.304Z,78.57
2023-02-23T18:44:50.553Z,72.27
2023-02-23T18:47:18.182Z,76.93
2023-02-23T18:49:49.238Z,68.57
2023-02-23T18:52:17.054Z,71.60
2023-02-23T18:54:44.623Z,75.53
2023-02-23T18:57:12.531Z,75.27
2023-02-23T18:59:40.635Z,71.80
2023-02-23T19:02:08.493Z,68.80
2023-02-23T19:04:36.658Z,82.27
2023-02-23T19:07:04.778Z,75.13
2023-02-23T19:09:32.616Z,77.43
2023-02-23T19:12:01.010Z,76.03
2023-02-23T19:14:47.897Z,83.13
2023-02-23T19:17:16.717Z,81.73
2023-02-23T19:19:45.359Z,80.07
2023-02-23T19:22:12.986Z,79.53
2023-02-23T19:24:40.983Z,83.03
2023-02-23T19:27:10.036Z,79.23
2023-02-23T19:29:38.439Z,91.43
2023-02-23T19:32:07.217Z,91.80
2023-02-23T19:34:34.964Z,92.93
2023-02-23T19:37:03.046Z,96.23
2023-02-23T19:39:31.399Z,94.77
2023-02-23T19:41:59.035Z,93.30
2023-02-23T19:44:26.579Z,95.90
2023-02-23T19:46:54.478Z,96.80
2023-02-23T19:49:22.049Z,96.07
2023-02-23T19:51:50.838Z,91.97
2023-02-23T19:54:19.521Z,85.80
2023-02-23T19:56:46.731Z,81.77
2023-02-23T19:59:14.189Z,92.63
2023-02-23T20:01:43.807Z,84.13
2023-02-23T20:04:11.564Z,91.07
2023-02-23T20:06:44.941Z,90.93
2023-02-23T20:09:12.974Z,91.80
2023-02-23T20:11:40.997Z,87.63
2023-02-23T20:14:09.096Z,95.40
2023-02-23T20:16:36.369Z,96.87
2023-02-23T20:19:07.691Z,92.70
2023-02-23T20:21:36.914Z,96.30
2023-02-23T20:24:05.684Z,98.07
2023-02-23T20:26:35.610Z,93.93
2023-02-23T20:29:03.273Z,95.63
2023-02-23T20:31:35.047Z,97.90
2023-02-23T20:34:03.659Z,95.70
2023-02-23T20:36:31.759Z,98.27
2023-02-23T20:38:59.716Z,101.33
2023-02-23T20:41:28.684Z,95.57
2023-02-23T20:43:56.555Z,95.87
2023-02-23T20:46:24.542Z,102.27
2023-02-23T20:48:52.464Z,92.80
2023-02-23T20:51:20.639Z,97.67
2023-02-23T20:53:50.965Z,94.00
2023-02-23T20:56:23.369Z,90.07
2023-02-23T20:58:50.927Z,86.27
2023-02-23T21:01:23.490Z,98.33
2023-02-23T21:03:54.411Z,97.10
2023-02-23T21:06:24.776Z,100.10
2023-02-23T21:08:55.906Z,97.30
2023-02-23T21:11:27.552Z,95.07
2023-02-23T21:13:55.219Z,95.83
2023-02-23T21:16:23.745Z,89.53
2023-02-23T21:19:04.256Z,97.13
2023-02-23T21:22:01.718Z,100.70
2023-02-23T21:24:33.765Z,96.55
2023-02-23T21:27:05.395Z,98.53
2023-02-23T21:29:36.455Z,89.00
2023-02-23T21:32:04.853Z,96.60
2023-02-23T21:34:33.246Z,93.27
2023-02-23T21:37:00.909Z,100.47
2023-02-23T21:39:29.195Z,89.00
2023-02-23T21:41:57.147Z,92.93
2023-02-23T21:44:24.680Z,100.00
2023-02-23T21:46:52.777Z,93.20
2023-02-23T21:49:23.782Z,87.50
2023-02-23T21:51:53.502Z,82.40
2023-02-23T21:54:21.585Z,90.47
2023-02-23T21:56:49.935Z,100.47
2023-02-23T21:59:17.427Z,91.70
2023-02-23T22:01:45.424Z,91.60
2023-02-23T22:04:14.817Z,93.30
2023-02-23T22:06:44.853Z,98.90
2023-02-23T22:09:12.644Z,89.87
2023-02-23T22:11:42.887Z,98.80
2023-02-23T22:14:10.613Z,86.57
2023-02-23T22:16:49.459Z,100.53
2023-02-23T22:19:17.669Z,96.23
2023-02-23T22:21:45.219Z,105.40
2023-02-23T22:24:13.837Z,100.37
2023-02-23T22:26:42.084Z,98.70
2023-02-23T22:29:10.919Z,104.03
2023-02-23T22:31:38.736Z,99.63
2023-02-23T22:34:07.304Z,95.27
2023-02-23T22:36:35.107Z,104.57
2023-02-23T22:39:05.162Z,98.43
2023-02-23T22:41:33.171Z,99.37
2023-02-23T22:44:00.877Z,101.50
2023-02-23T22:46:29.312Z,100.07
2023-02-23T22:48:57.403Z,96.80
2023-02-23T22:51:25.573Z,98.60
2023-02-23T22:53:53.670Z,94.47
2023-02-23T22:56:21.886Z,92.93
2023-02-23T22:58:49.925Z,97.33
2023-02-23T23:01:19.184Z,95.43
2023-02-23T23:03:47.626Z,103.93
2023-02-23T23:06:17.495Z,94.80
2023-02-23T23:08:46.005Z,96.17
2023-02-23T23:11:15.180Z,100.50
2023-02-23T23:13:48.482Z,97.33
2023-02-23T23:16:30.766Z,87.23
2023-02-23T23:19:25.988Z,85.17
2023-02-23T23:21:57.450Z,86.10
2023-02-23T23:24:25.397Z,90.33
2023-02-23T23:27:00.204Z,91.20
2023-02-23T23:29:30.696Z,92.73
2023-02-23T23:31:58.266Z,93.10
2023-02-23T23:34:25.334Z,94.17
2023-02-23T23:36:56.853Z,89.43
2023-02-23T23:39:24.442Z,85.20
2023-02-23T23:41:52.574Z,87.40
2023-02-23T23:44:22.045Z,86.23
2023-02-23T23:46:52.977Z,88.33
2023-02-23T23:49:21.983Z,88.27
2023-02-23T23:51:50.915Z,88.87
2023-02-23T23:54:20.109Z,85.87
2023-02-23T23:56:47.718Z,83.90
2023-02-23T23:59:17.211Z,85.33
